createdAt,value
2023-01-01T00:01:20.939Z,19.83
2023-01-01T00:03:54.075Z,18.33
2023-01-01T00:06:20.402Z,18.23
2023-01-01T00:08:46.713Z,18.45
2023-01-01T00:11:13.215Z,19.83
2023-01-01T00:13:41.639Z,21.48
2023-01-01T00:16:12.323Z,21.30
2023-01-01T00:18:39.115Z,23.27
2023-01-01T00:21:12.786Z,20.85
2023-01-01T00:23:39.053Z,19.42
2023-01-01T00:26:11.854Z,21.55
2023-01-01T00:28:38.548Z,21.00
2023-01-01T00:31:08.871Z,20.67
2023-01-01T00:33:35.180Z,18.50
2023-01-01T00:36:08.364Z,18.15
2023-01-01T00:38:34.851Z,22.83
2023-01-01T00:41:01.259Z,24.10
2023-01-01T00:43:27.618Z,23.10
2023-01-01T00:45:53.935Z,24.60
2023-01-01T00:48:21.163Z,24.85
2023-01-01T00:50:51.118Z,20.05
2023-01-01T00:53:17.476Z,20.45
2023-01-01T00:55:44.105Z,24.25
2023-01-01T00:58:10.808Z,22.33
2023-01-01T01:00:37.563Z,18.95
2023-01-01T01:03:04.119Z,18.98
2023-01-01T01:05:32.036Z,15.88
2023-01-01T01:07:58.489Z,14.20
2023-01-01T01:10:25.999Z,20.65
2023-01-01T01:12:52.994Z,19.10
2023-01-01T01:17:45.431Z,21.13
2023-01-01T01:20:12.432Z,21.83
2023-01-01T01:25:05.517Z,21.48
2023-01-01T01:27:31.880Z,18.88
2023-01-01T01:29:58.189Z,18.15
2023-01-01T01:32:24.417Z,15.18
2023-01-01T01:34:50.621Z,13.93
2023-01-01T01:37:16.867Z,13.00
2023-01-01T01:39:43.098Z,11.32
2023-01-01T01:42:15.820Z,9.93
2023-01-01T01:44:58.521Z,8.75
2023-01-01T01:47:28.096Z,9.88
2023-01-01T01:49:57.159Z,9.20
2023-01-01T01:52:23.885Z,9.55
2023-01-01T01:54:50.284Z,9.98
2023-01-01T01:57:16.719Z,8.65
2023-01-01T01:59:46.653Z,11.48
2023-01-01T02:02:27.143Z,9.50
2023-01-01T02:04:54.419Z,10.23
2023-01-01T02:07:21.641Z,9.43
2023-01-01T02:09:48.001Z,10.30
2023-01-01T02:12:14.222Z,9.88
2023-01-01T02:14:40.496Z,9.93
2023-01-01T02:17:14.396Z,9.23
2023-01-01T02:19:46.034Z,9.55
2023-01-01T02:22:16.959Z,10.10
2023-01-01T02:25:09.691Z,8.93
2023-01-01T02:27:54.541Z,10.07
2023-01-01T02:30:20.790Z,9.70
2023-01-01T02:32:51.907Z,9.35
2023-01-01T02:35:36.313Z,8.77
2023-01-01T02:38:08.395Z,10.10
2023-01-01T02:40:35.778Z,9.30
2023-01-01T02:43:02.723Z,9.85
2023-01-01T02:47:55.080Z,8.93
2023-01-01T02:50:23.693Z,9.25
2023-01-01T02:52:54.747Z,8.85
2023-01-01T02:55:26.922Z,9.98
2023-01-01T02:57:58.732Z,10.55
2023-01-01T03:00:29.422Z,8.13
2023-01-01T03:03:10.890Z,9.63
2023-01-01T03:06:02.601Z,10.60
2023-01-01T03:08:44.885Z,8.85
2023-01-01T03:11:13.253Z,8.80
2023-01-01T03:13:46.858Z,9.27
2023-01-01T03:16:16.219Z,9.43
2023-01-01T03:19:10.781Z,9.48
2023-01-01T03:21:48.936Z,8.85
2023-01-01T03:24:19.239Z,9.18
2023-01-01T03:26:47.076Z,9.13
2023-01-01T03:29:13.532Z,9.15
2023-01-01T03:31:41.946Z,8.38
2023-01-01T03:34:11.529Z,7.43
2023-01-01T03:36:38.879Z,8.18
2023-01-01T03:39:10.416Z,8.43
2023-01-01T03:41:42.411Z,8.10
2023-01-01T03:44:30.441Z,8.07
2023-01-01T03:46:56.980Z,8.57
2023-01-01T03:49:23.457Z,7.30
2023-01-01T03:51:57.048Z,7.63
2023-01-01T03:54:29.263Z,7.40
2023-01-01T03:57:18.795Z,8.02
2023-01-01T04:00:03.711Z,7.30
2023-01-01T04:02:36.846Z,8.32
2023-01-01T04:05:04.873Z,7.10
2023-01-01T04:07:31.516Z,8.00
2023-01-01T04:09:59.113Z,7.45
2023-01-01T04:12:25.692Z,7.32
2023-01-01T04:14:51.888Z,7.80
2023-01-01T04:17:18.401Z,7.53
2023-01-01T04:19:48.768Z,7.53
2023-01-01T04:22:19.893Z,7.00
2023-01-01T04:24:46.129Z,5.38
2023-01-01T04:27:12.456Z,6.63
2023-01-01T04:29:41.755Z,6.90
2023-01-01T04:32:07.950Z,6.88
2023-01-01T04:34:34.561Z,6.65
2023-01-01T04:37:00.794Z,6.10
2023-01-01T04:39:27.068Z,5.30
2023-01-01T04:41:53.305Z,6.22
2023-01-01T04:44:19.555Z,6.13
2023-01-01T04:46:45.770Z,6.50
2023-01-01T04:49:12.002Z,6.47
2023-01-01T04:51:38.260Z,6.53
2023-01-01T04:54:04.594Z,5.18
2023-01-01T04:56:30.830Z,5.97
2023-01-01T04:58:58.548Z,6.80
2023-01-01T05:01:26.748Z,5.88
2023-01-01T05:03:53.664Z,5.88
2023-01-01T05:06:20.239Z,6.28
2023-01-01T05:08:48.212Z,5.57
2023-01-01T05:11:16.039Z,6.05
2023-01-01T05:13:43.376Z,5.68
2023-01-01T05:16:11.363Z,5.07
2023-01-01T05:18:38.007Z,6.20
2023-01-01T05:21:05.544Z,5.18
2023-01-01T05:23:32.468Z,5.43
2023-01-01T05:28:25.241Z,4.90
2023-01-01T05:30:51.912Z,5.18
2023-01-01T05:33:18.645Z,5.30
2023-01-01T05:35:44.962Z,4.75
2023-01-01T05:38:11.512Z,4.60
2023-01-01T05:40:40.611Z,5.10
2023-01-01T05:43:07.153Z,4.68
2023-01-01T05:45:33.648Z,4.60
2023-01-01T05:47:59.890Z,4.88
2023-01-01T05:50:26.116Z,5.05
2023-01-01T05:52:52.299Z,5.25
2023-01-01T05:55:18.534Z,5.00
2023-01-01T05:57:44.745Z,4.50
2023-01-01T06:00:11.394Z,4.97
2023-01-01T06:02:37.667Z,5.18
2023-01-01T06:05:04.118Z,4.50
2023-01-01T06:07:30.317Z,4.93
2023-01-01T06:09:56.581Z,4.82
2023-01-01T06:12:22.867Z,4.82
2023-01-01T06:14:49.062Z,6.88
2023-01-01T06:17:15.283Z,7.60
2023-01-01T06:19:41.505Z,6.63
2023-01-01T06:22:07.763Z,5.07
2023-01-01T06:24:38.956Z,7.80
2023-01-01T06:27:06.919Z,5.38
2023-01-01T06:29:33.129Z,4.97
2023-01-01T06:31:59.371Z,5.22
2023-01-01T06:34:25.637Z,4.78
2023-01-01T06:36:51.926Z,4.07
2023-01-01T06:39:18.137Z,3.70
2023-01-01T06:41:44.686Z,4.38
2023-01-01T06:44:11.003Z,4.40
2023-01-01T06:46:37.397Z,4.10
2023-01-01T06:49:05.331Z,4.13
2023-01-01T06:51:33.130Z,4.53
2023-01-01T06:54:00.169Z,4.40
2023-01-01T06:56:26.791Z,3.42
2023-01-01T06:58:53.052Z,3.55
2023-01-01T07:01:20.975Z,4.38
2023-01-01T07:03:52.069Z,3.75
2023-01-01T07:06:18.400Z,4.00
2023-01-01T07:08:44.613Z,3.90
2023-01-01T07:11:11.004Z,4.07
2023-01-01T07:13:37.371Z,3.83
2023-01-01T07:16:10.239Z,4.38
2023-01-01T07:18:39.067Z,3.78
2023-01-01T07:21:05.914Z,4.28
2023-01-01T07:23:33.279Z,4.25
2023-01-01T07:25:59.684Z,3.80
2023-01-01T07:28:26.402Z,3.55
2023-01-01T07:30:53.833Z,4.30
2023-01-01T07:33:21.162Z,4.40
2023-01-01T07:35:47.843Z,4.13
2023-01-01T07:38:14.627Z,4.82
2023-01-01T07:40:40.891Z,3.83
2023-01-01T07:43:07.305Z,4.07
2023-01-01T07:45:34.025Z,4.45
2023-01-01T07:48:00.677Z,3.85
2023-01-01T07:50:28.387Z,3.88
2023-01-01T07:52:54.630Z,5.07
2023-01-01T07:55:21.187Z,4.25
2023-01-01T07:57:48.830Z,4.68
2023-01-01T08:00:16.456Z,4.43
2023-01-01T08:02:42.883Z,6.40
2023-01-01T08:05:09.705Z,5.22
2023-01-01T08:07:36.161Z,5.80
2023-01-01T08:10:03.846Z,4.90
2023-01-01T08:12:30.172Z,6.05
2023-01-01T08:14:56.394Z,6.75
2023-01-01T08:17:22.683Z,5.72
2023-01-01T08:19:49.308Z,4.63
2023-01-01T08:22:15.863Z,4.18
2023-01-01T08:24:42.104Z,4.80
2023-01-01T08:27:10.741Z,4.43
2023-01-01T08:29:37.160Z,4.88
2023-01-01T08:32:03.536Z,4.22
2023-01-01T08:34:29.843Z,3.03
2023-01-01T08:36:56.064Z,4.15
2023-01-01T08:39:22.321Z,3.03
2023-01-01T08:41:48.558Z,3.25
2023-01-01T08:44:14.778Z,2.97
2023-01-01T08:46:41.030Z,3.83
2023-01-01T08:49:07.338Z,3.58
2023-01-01T08:51:33.614Z,5.35
2023-01-01T08:53:59.851Z,3.22
2023-01-01T08:56:26.135Z,3.45
2023-01-01T08:58:52.461Z,2.65
2023-01-01T09:01:22.031Z,3.67
2023-01-01T09:03:49.019Z,3.15
2023-01-01T09:06:15.265Z,3.28
2023-01-01T09:08:41.514Z,3.20
2023-01-01T09:11:07.777Z,2.78
2023-01-01T09:13:34.444Z,3.88
2023-01-01T09:16:00.878Z,3.90
2023-01-01T09:18:27.247Z,3.20
2023-01-01T09:20:53.668Z,3.85
2023-01-01T09:23:19.929Z,4.22
2023-01-01T09:25:46.193Z,3.58
2023-01-01T09:28:13.789Z,4.72
2023-01-01T09:30:40.365Z,3.30
2023-01-01T09:33:06.652Z,5.22
2023-01-01T09:35:33.029Z,5.53
2023-01-01T09:37:59.300Z,3.78
2023-01-01T09:40:25.585Z,3.67
2023-01-01T09:42:58.053Z,11.35
2023-01-01T09:45:24.326Z,7.85
2023-01-01T09:47:58.874Z,6.15
2023-01-01T09:50:29.268Z,7.55
2023-01-01T09:52:56.837Z,6.07
2023-01-01T09:55:30.793Z,3.90
2023-01-01T09:57:57.470Z,2.80
2023-01-01T10:00:23.898Z,3.25
2023-01-01T10:02:56.556Z,3.05
2023-01-01T10:06:01.639Z,2.90
2023-01-01T10:08:27.907Z,3.72
2023-01-01T10:11:11.205Z,2.92
2023-01-01T10:13:45.094Z,3.83
2023-01-01T10:16:24.051Z,3.08
2023-01-01T10:18:54.257Z,3.50
2023-01-01T10:21:26.403Z,3.47
2023-01-01T10:23:52.660Z,3.20
2023-01-01T10:26:21.465Z,2.88
2023-01-01T10:28:56.262Z,2.95
2023-01-01T10:31:33.654Z,3.85
2023-01-01T10:34:03.069Z,2.83
2023-01-01T10:36:29.614Z,3.90
2023-01-01T10:38:55.867Z,2.97
2023-01-01T10:41:22.122Z,3.35
2023-01-01T10:43:48.799Z,3.70
2023-01-01T10:46:19.369Z,3.17
2023-01-01T10:49:03.515Z,3.65
2023-01-01T10:51:30.024Z,3.40
2023-01-01T10:53:56.318Z,3.97
2023-01-01T10:56:23.532Z,3.08
2023-01-01T10:58:50.882Z,3.25
2023-01-01T11:01:28.070Z,3.42
2023-01-01T11:03:57.193Z,2.55
2023-01-01T11:06:29.468Z,3.00
2023-01-01T11:08:56.607Z,3.40
2023-01-01T11:11:27.128Z,2.90
2023-01-01T11:13:54.742Z,3.25
2023-01-01T11:16:21.277Z,3.30
2023-01-01T11:18:47.839Z,3.35
2023-01-01T11:21:19.520Z,3.30
2023-01-01T11:23:45.831Z,3.47
2023-01-01T11:26:12.049Z,4.07
2023-01-01T11:28:38.285Z,3.25
2023-01-01T11:31:04.617Z,5.25
2023-01-01T11:33:32.237Z,4.75
2023-01-01T11:35:58.640Z,11.95
2023-01-01T11:38:29.892Z,7.03
2023-01-01T11:41:01.291Z,11.45
2023-01-01T11:43:30.947Z,4.32
2023-01-01T11:45:58.428Z,3.50
2023-01-01T11:48:32.336Z,4.00
2023-01-01T11:51:00.765Z,4.57
2023-01-01T11:53:29.534Z,4.05
2023-01-01T11:56:01.595Z,4.15
2023-01-01T11:58:33.724Z,5.20
2023-01-01T12:01:12.029Z,4.05
2023-01-01T12:03:42.630Z,4.80
2023-01-01T12:06:12.749Z,4.40
2023-01-01T12:08:54.008Z,3.85
2023-01-01T12:11:44.909Z,4.13
2023-01-01T12:14:22.231Z,5.80
2023-01-01T12:16:58.282Z,5.88
2023-01-01T12:19:43.380Z,3.65
2023-01-01T12:22:17.340Z,3.95
2023-01-01T12:24:44.185Z,4.07
2023-01-01T12:29:43.322Z,5.53
2023-01-01T12:32:12.324Z,7.50
2023-01-01T12:34:50.830Z,4.93
2023-01-01T12:37:23.158Z,6.88
2023-01-01T12:40:02.186Z,7.35
2023-01-01T12:42:40.083Z,4.38
2023-01-01T12:45:12.383Z,3.42
2023-01-01T12:47:58.416Z,4.50
2023-01-01T12:50:27.741Z,4.22
2023-01-01T12:53:00.056Z,4.20
2023-01-01T12:55:29.339Z,3.58
2023-01-01T12:58:13.133Z,3.70
2023-01-01T13:00:41.497Z,4.13
2023-01-01T13:03:18.885Z,3.38
2023-01-01T13:08:11.414Z,3.17
2023-01-01T13:10:39.241Z,3.70
2023-01-01T13:13:06.127Z,3.35
2023-01-01T13:18:05.752Z,2.83
2023-01-01T13:20:32.887Z,3.17
2023-01-01T13:22:59.197Z,3.95
2023-01-01T13:25:25.489Z,3.30
2023-01-01T13:27:57.762Z,3.42
2023-01-01T13:30:36.348Z,3.58
2023-01-01T13:33:26.134Z,3.60
2023-01-01T13:36:10.820Z,3.22
2023-01-01T13:38:48.944Z,3.08
2023-01-01T13:41:30.870Z,2.50
2023-01-01T13:43:57.177Z,2.70
2023-01-01T13:46:28.028Z,3.03
2023-01-01T13:49:01.349Z,3.40
2023-01-01T13:52:03.589Z,2.95
2023-01-01T13:54:32.633Z,3.67
2023-01-01T13:57:13.761Z,2.85
2023-01-01T13:59:58.498Z,3.45
2023-01-01T14:02:36.261Z,3.00
2023-01-01T14:05:07.979Z,3.13
2023-01-01T14:07:52.459Z,3.25
2023-01-01T14:10:23.971Z,2.80
2023-01-01T14:12:51.039Z,3.40
2023-01-01T14:15:23.641Z,6.03
2023-01-01T14:17:50.405Z,9.10
2023-01-01T14:20:18.491Z,7.45
2023-01-01T14:22:45.913Z,8.88
2023-01-01T14:25:23.091Z,5.82
2023-01-01T14:27:49.340Z,5.57
2023-01-01T14:30:16.568Z,4.38
2023-01-01T14:32:42.841Z,5.13
2023-01-01T14:35:14.534Z,5.10
2023-01-01T14:37:40.923Z,4.80
2023-01-01T14:40:16.903Z,7.05
2023-01-01T14:42:43.792Z,5.30
2023-01-01T14:47:36.223Z,6.35
2023-01-01T14:50:08.794Z,6.30
2023-01-01T14:52:35.655Z,7.50
2023-01-01T14:57:30.340Z,5.40
2023-01-01T14:59:56.674Z,5.65
2023-01-01T15:02:28.224Z,6.63
2023-01-01T15:04:54.950Z,5.80
2023-01-01T15:07:30.821Z,6.97
2023-01-01T15:10:00.391Z,6.05
2023-01-01T15:12:26.839Z,6.32
2023-01-01T15:14:54.027Z,5.80
2023-01-01T15:17:21.476Z,5.40
2023-01-01T15:20:00.316Z,5.47
2023-01-01T15:22:28.051Z,5.75
2023-01-01T15:24:54.443Z,5.40
2023-01-01T15:27:26.814Z,5.82
2023-01-01T15:29:53.388Z,4.85
2023-01-01T15:32:25.440Z,5.10
2023-01-01T15:34:55.783Z,4.97
2023-01-01T15:37:31.277Z,3.95
2023-01-01T15:39:58.961Z,4.28
2023-01-01T15:42:35.692Z,5.20
2023-01-01T15:45:15.708Z,5.07
2023-01-01T15:47:42.077Z,4.10
2023-01-01T15:50:14.069Z,4.38
2023-01-01T15:52:42.966Z,4.00
2023-01-01T15:55:14.198Z,4.28
2023-01-01T15:57:40.443Z,5.00
2023-01-01T16:00:07.025Z,4.22
2023-01-01T16:02:34.335Z,4.18
2023-01-01T16:05:00.733Z,3.85
2023-01-01T16:07:27.890Z,3.75
2023-01-01T16:09:57.771Z,3.30
2023-01-01T16:12:24.460Z,3.72
2023-01-01T16:14:50.786Z,4.38
2023-01-01T16:17:18.964Z,3.30
2023-01-01T16:19:46.424Z,3.97
2023-01-01T16:22:16.908Z,4.30
2023-01-01T16:24:43.865Z,4.05
2023-01-01T16:29:36.385Z,3.28
2023-01-01T16:32:02.712Z,3.75
2023-01-01T16:34:28.968Z,4.30
2023-01-01T16:36:55.208Z,3.85
2023-01-01T16:39:21.439Z,4.65
2023-01-01T16:41:47.681Z,4.88
2023-01-01T16:44:14.980Z,3.95
2023-01-01T16:46:41.335Z,4.68
2023-01-01T16:49:07.733Z,4.20
2023-01-01T16:51:34.500Z,3.97
2023-01-01T16:54:01.041Z,4.45
2023-01-01T16:56:27.828Z,4.88
2023-01-01T16:59:02.273Z,4.50
2023-01-01T17:01:29.684Z,4.88
2023-01-01T17:03:55.983Z,4.45
2023-01-01T17:06:22.213Z,5.20
2023-01-01T17:08:48.480Z,6.07
2023-01-01T17:11:16.617Z,5.57
2023-01-01T17:13:44.316Z,5.85
2023-01-01T17:16:11.668Z,7.05
2023-01-01T17:21:24.695Z,5.80
2023-01-01T17:23:51.237Z,8.30
2023-01-01T17:26:19.098Z,16.00
2023-01-01T17:28:45.922Z,14.40
2023-01-01T17:31:13.477Z,13.13
2023-01-01T17:33:40.028Z,12.57
2023-01-01T17:36:06.717Z,13.63
2023-01-01T17:38:33.128Z,14.23
2023-01-01T17:41:03.403Z,14.25
2023-01-01T17:43:37.333Z,13.18
2023-01-01T17:46:04.652Z,15.45
2023-01-01T17:48:30.961Z,17.95
2023-01-01T17:50:57.192Z,27.50
2023-01-01T17:53:23.454Z,47.20
2023-01-01T17:55:49.729Z,30.83
2023-01-01T17:58:15.986Z,23.90
2023-01-01T18:00:42.217Z,16.70
2023-01-01T18:03:12.438Z,37.08
2023-01-01T18:05:38.714Z,62.85
2023-01-01T18:08:05.318Z,25.27
2023-01-01T18:10:31.590Z,27.33
2023-01-01T18:12:57.914Z,22.35
2023-01-01T18:15:24.210Z,21.65
2023-01-01T18:17:50.470Z,20.60
2023-01-01T18:20:17.832Z,26.35
2023-01-01T18:22:44.394Z,17.30
2023-01-01T18:25:10.695Z,12.20
2023-01-01T18:27:36.973Z,22.10
2023-01-01T18:30:03.666Z,124.82
2023-01-01T18:32:29.921Z,32.10
2023-01-01T18:34:57.411Z,21.25
2023-01-01T18:37:24.064Z,15.32
2023-01-01T18:39:50.298Z,13.38
2023-01-01T18:42:19.732Z,53.90
2023-01-01T18:44:46.000Z,108.45
2023-01-01T18:47:14.369Z,66.03
2023-01-01T18:49:43.832Z,56.60
2023-01-01T18:52:26.320Z,30.08
2023-01-01T18:55:12.897Z,27.73
2023-01-01T18:57:39.634Z,15.05
2023-01-01T19:00:21.159Z,17.83
2023-01-01T19:03:10.487Z,19.23
2023-01-01T19:05:36.806Z,14.57
2023-01-01T19:08:06.057Z,14.35
2023-01-01T19:10:53.658Z,17.30
2023-01-01T19:13:20.040Z,27.33
2023-01-01T19:15:47.628Z,34.65
2023-01-01T19:18:25.041Z,25.55
2023-01-01T19:20:58.061Z,26.63
2023-01-01T19:23:24.473Z,23.38
2023-01-01T19:25:51.548Z,24.52
2023-01-01T19:28:17.764Z,24.25
2023-01-01T19:30:44.902Z,23.45
2023-01-01T19:33:11.520Z,22.98
2023-01-01T19:35:37.891Z,20.92
2023-01-01T19:38:04.214Z,20.67
2023-01-01T19:40:30.581Z,24.35
2023-01-01T19:42:57.184Z,22.67
2023-01-01T19:45:24.903Z,24.98
2023-01-01T19:47:51.156Z,25.08
2023-01-01T19:50:17.403Z,32.75
2023-01-01T19:52:44.749Z,30.30
2023-01-01T19:55:11.001Z,25.63
2023-01-01T19:57:37.263Z,23.48
2023-01-01T20:00:03.710Z,24.17
2023-01-01T20:02:47.502Z,22.38
2023-01-01T20:05:14.245Z,20.48
2023-01-01T20:07:40.510Z,18.63
2023-01-01T20:10:06.985Z,15.60
2023-01-01T20:12:33.187Z,12.55
2023-01-01T20:14:59.497Z,8.85
2023-01-01T20:17:25.691Z,9.27
2023-01-01T20:19:54.008Z,14.07
2023-01-01T20:22:21.895Z,18.05
2023-01-01T20:24:48.207Z,16.10
2023-01-01T20:27:17.519Z,15.15
2023-01-01T20:29:44.393Z,14.57
2023-01-01T20:34:41.928Z,13.73
2023-01-01T20:37:27.070Z,12.45
2023-01-01T20:39:53.320Z,8.98
2023-01-01T20:42:19.535Z,5.68
2023-01-01T20:44:45.947Z,6.70
2023-01-01T20:47:12.979Z,4.88
2023-01-01T20:49:39.630Z,5.70
2023-01-01T20:52:06.101Z,5.57
2023-01-01T20:54:32.323Z,5.45
2023-01-01T20:56:58.596Z,5.18
2023-01-01T20:59:35.459Z,4.95
2023-01-01T21:02:03.889Z,4.40
2023-01-01T21:04:30.292Z,5.47
2023-01-01T21:06:56.523Z,5.10
2023-01-01T21:09:22.720Z,5.55
2023-01-01T21:11:48.951Z,5.10
2023-01-01T21:14:15.198Z,5.97
2023-01-01T21:16:43.134Z,4.47
2023-01-01T21:19:09.783Z,4.63
2023-01-01T21:21:35.964Z,4.57
2023-01-01T21:24:15.036Z,5.63
2023-01-01T21:26:41.293Z,5.28
2023-01-01T21:29:11.337Z,5.65
2023-01-01T21:31:40.421Z,5.82
2023-01-01T21:34:21.432Z,5.03
2023-01-01T21:36:47.652Z,5.53
2023-01-01T21:39:14.214Z,4.93
2023-01-01T21:41:40.430Z,6.18
2023-01-01T21:44:10.894Z,5.32
2023-01-01T21:46:39.454Z,5.03
2023-01-01T21:49:19.002Z,4.65
2023-01-01T21:51:56.733Z,6.22
2023-01-01T21:54:22.963Z,5.78
2023-01-01T21:57:12.445Z,4.75
2023-01-01T21:59:39.636Z,5.47
2023-01-01T22:02:06.192Z,5.95
2023-01-01T22:07:00.013Z,5.68
2023-01-01T22:09:41.943Z,6.15
2023-01-01T22:12:14.384Z,5.28
2023-01-01T22:14:42.085Z,6.10
2023-01-01T22:17:15.973Z,6.03
2023-01-01T22:19:45.481Z,5.68
2023-01-01T22:22:13.562Z,5.53
2023-01-01T22:24:40.089Z,6.05
2023-01-01T22:27:20.216Z,5.45
2023-01-01T22:29:46.606Z,5.78
2023-01-01T22:32:16.958Z,5.63
2023-01-01T22:34:43.278Z,5.60
2023-01-01T22:37:17.356Z,5.65
2023-01-01T22:39:43.577Z,5.13
2023-01-01T22:42:14.736Z,6.53
2023-01-01T22:44:41.177Z,5.95
2023-01-01T22:47:16.186Z,5.25
2023-01-01T22:49:46.661Z,6.50
2023-01-01T22:52:13.093Z,6.07
2023-01-01T22:54:39.332Z,5.70
2023-01-01T22:57:05.573Z,6.00
2023-01-01T22:59:31.768Z,6.50
2023-01-01T23:01:57.994Z,6.45
2023-01-01T23:04:24.189Z,5.90
2023-01-01T23:06:50.394Z,6.80
2023-01-01T23:09:16.699Z,5.85
2023-01-01T23:11:43.134Z,6.43
2023-01-01T23:14:28.077Z,6.03
2023-01-01T23:16:54.313Z,6.03
2023-01-01T23:19:20.527Z,6.65
2023-01-01T23:21:46.832Z,7.10
2023-01-01T23:24:15.366Z,6.03
2023-01-01T23:26:41.899Z,5.68
2023-01-01T23:29:09.941Z,7.50
2023-01-01T23:31:36.770Z,8.10
2023-01-01T23:34:03.068Z,6.78
2023-01-01T23:36:29.558Z,6.13
2023-01-01T23:38:55.883Z,6.43
2023-01-01T23:41:23.042Z,5.45
2023-01-01T23:43:49.657Z,5.97
2023-01-01T23:46:16.156Z,6.20
2023-01-01T23:48:43.594Z,6.88
2023-01-01T23:51:10.046Z,5.40
2023-01-01T23:53:36.331Z,5.30
2023-01-01T23:56:02.633Z,6.43
2023-01-01T23:58:28.886Z,6.25
